Time;durP1;ratioP1;P1;durP2;ratioP2;P2;SDS_P1;SDS_P2;PMS_P1;PMS_P2;Temp;Humidity;BMP_temperature;BMP_pressure;BME280_temperature;BME280_humidity;BME280_pressure;Samples;Min_cycle;Max_cycle;Signal;HPM_P1;HPM_P2
2022/08/15 00:01:14;;;;;;;20.33;17.83;;;;;;;;;;4967826;28;19922;-75
2022/08/15 00:03:45;;;;;;;20.23;18.00;;;;;;;;;;4968362;28;20035;-75
2022/08/15 00:06:15;;;;;;;23.73;19.45;;;;;;;;;;4970906;28;20053;-75
2022/08/15 00:08:43;;;;;;;20.25;18.23;;;;;;;;;;4968799;28;20022;-75
2022/08/15 00:11:15;;;;;;;21.98;18.20;;;;;;;;;;4951538;28;20027;-76
2022/08/15 00:13:42;;;;;;;21.27;18.30;;;;;;;;;;4967996;28;20139;-76
2022/08/15 00:16:08;;;;;;;21.35;18.92;;;;;;;;;;5034954;28;20027;-76
2022/08/15 00:18:34;;;;;;;19.65;17.60;;;;;;;;;;4967430;28;20425;-75
2022/08/15 00:21:00;;;;;;;21.70;17.80;;;;;;;;;;4965328;28;20525;-76
2022/08/15 00:23:27;;;;;;;19.85;16.83;;;;;;;;;;4967421;28;20027;-75
2022/08/15 00:25:54;;;;;;;20.17;16.48;;;;;;;;;;4950057;28;20212;-75
2022/08/15 00:28:20;;;;;;;18.40;16.50;;;;;;;;;;4968484;28;20432;-76
2022/08/15 00:30:46;;;;;;;17.60;15.70;;;;;;;;;;4965656;28;20092;-76
2022/08/15 00:33:13;;;;;;;23.13;16.63;;;;;;;;;;4967169;28;20035;-75
2022/08/15 00:35:40;;;;;;;17.75;15.77;;;;;;;;;;4967605;28;20039;-76
2022/08/15 00:38:16;;;;;;;17.33;15.23;;;;;;;;;;4951290;28;20083;-76
2022/08/15 00:43:28;;;;;;;18.45;15.32;;;;;;;;;;4959021;28;20561;-78
2022/08/15 00:45:54;;;;;;;18.10;15.65;;;;;;;;;;4962425;28;20511;-76
2022/08/15 00:51:09;;;;;;;17.50;15.00;;;;;;;;;;4966325;28;20037;-76
2022/08/15 00:53:35;;;;;;;22.35;15.00;;;;;;;;;;4967092;28;20109;-81
2022/08/15 00:56:02;;;;;;;16.95;14.93;;;;;;;;;;4948085;28;20050;-75
2022/08/15 00:58:28;;;;;;;17.50;15.55;;;;;;;;;;4968260;28;20026;-75
2022/08/15 01:00:54;;;;;;;18.27;16.02;;;;;;;;;;4965832;28;20205;-76
2022/08/15 01:03:24;;;;;;;16.70;14.73;;;;;;;;;;5032917;28;20063;-76
2022/08/15 01:05:52;;;;;;;18.70;15.23;;;;;;;;;;4962879;28;20384;-76
2022/08/15 01:08:19;;;;;;;18.60;13.95;;;;;;;;;;4959976;28;20031;-76
2022/08/15 01:10:47;;;;;;;19.23;14.90;;;;;;;;;;4954026;28;20034;-76
2022/08/15 01:13:13;;;;;;;15.60;13.77;;;;;;;;;;4951618;28;20027;-75
2022/08/15 01:15:39;;;;;;;16.60;13.32;;;;;;;;;;4951885;28;20038;-76
2022/08/15 01:18:06;;;;;;;15.25;13.73;;;;;;;;;;4951913;28;20039;-75
2022/08/15 01:20:33;;;;;;;17.88;13.60;;;;;;;;;;4949822;28;20177;-76
2022/08/15 01:23:04;;;;;;;16.80;15.15;;;;;;;;;;4952610;28;20603;-76
2022/08/15 01:25:32;;;;;;;22.48;16.00;;;;;;;;;;4936276;28;20019;-76
2022/08/15 01:28:01;;;;;;;19.10;14.18;;;;;;;;;;4951050;28;20472;-75
2022/08/15 01:30:29;;;;;;;17.27;14.10;;;;;;;;;;4965974;28;20105;-76
2022/08/15 01:32:55;;;;;;;17.15;15.35;;;;;;;;;;4948615;28;20028;-75
2022/08/15 01:35:22;;;;;;;18.80;14.85;;;;;;;;;;4945052;28;20046;-76
2022/08/15 01:37:51;;;;;;;16.77;14.98;;;;;;;;;;4952185;28;20389;-76
2022/08/15 01:40:34;;;;;;;16.50;14.60;;;;;;;;;;4934830;28;20334;-76
2022/08/15 01:43:01;;;;;;;19.42;14.90;;;;;;;;;;4960932;28;20040;-77
2022/08/15 01:45:28;;;;;;;17.42;15.63;;;;;;;;;;4949845;28;20399;-76
2022/08/15 01:48:00;;;;;;;21.30;16.35;;;;;;;;;;4951773;28;20034;-76
2022/08/15 01:50:33;;;;;;;18.58;16.50;;;;;;;;;;4945073;28;20059;-75
2022/08/15 01:53:08;;;;;;;17.45;15.57;;;;;;;;;;4955783;28;20046;-75
2022/08/15 01:55:41;;;;;;;22.33;15.77;;;;;;;;;;4970928;28;20035;-78
2022/08/15 01:58:08;;;;;;;17.88;14.82;;;;;;;;;;4957871;28;20496;-76
2022/08/15 02:00:35;;;;;;;21.90;14.35;;;;;;;;;;4962750;28;20512;-83
2022/08/15 02:03:01;;;;;;;17.10;14.85;;;;;;;;;;4961685;28;20023;-76
2022/08/15 02:05:27;;;;;;;14.80;13.27;;;;;;;;;;4956283;28;20031;-76
2022/08/15 02:07:53;;;;;;;18.95;14.95;;;;;;;;;;4953566;28;20075;-76
2022/08/15 02:10:19;;;;;;;21.52;14.05;;;;;;;;;;4950949;28;20059;-76
2022/08/15 02:12:45;;;;;;;17.58;14.32;;;;;;;;;;4954453;28;20031;-76
2022/08/15 02:15:15;;;;;;;21.15;14.50;;;;;;;;;;4960747;28;20037;-76
2022/08/15 02:17:42;;;;;;;23.65;15.63;;;;;;;;;;4950964;28;20041;-76
2022/08/15 02:20:09;;;;;;;23.38;15.52;;;;;;;;;;4951071;28;20084;-76
2022/08/15 02:22:35;;;;;;;23.85;15.82;;;;;;;;;;4964262;28;20055;-81
2022/08/15 02:25:01;;;;;;;18.85;15.52;;;;;;;;;;4933960;28;20488;-76
2022/08/15 02:27:28;;;;;;;34.40;19.58;;;;;;;;;;4950396;28;20028;-76
2022/08/15 02:29:54;;;;;;;24.83;19.35;;;;;;;;;;4948819;28;20023;-76
2022/08/15 02:32:21;;;;;;;25.77;19.63;;;;;;;;;;4952872;28;20027;-76
2022/08/15 02:34:48;;;;;;;24.40;20.65;;;;;;;;;;4939312;28;20062;-76
2022/08/15 02:37:18;;;;;;;40.33;23.50;;;;;;;;;;4964724;28;20122;-76
2022/08/15 02:39:45;;;;;;;35.42;24.85;;;;;;;;;;4951049;28;20038;-76
2022/08/15 02:42:12;;;;;;;45.92;28.98;;;;;;;;;;4952748;28;20168;-76
2022/08/15 02:44:38;;;;;;;42.00;27.92;;;;;;;;;;4938732;28;20038;-77
2022/08/15 02:47:05;;;;;;;32.25;27.20;;;;;;;;;;4944953;28;20043;-77
2022/08/15 02:49:33;;;;;;;40.03;27.33;;;;;;;;;;4959877;28;20392;-76
2022/08/15 02:52:00;;;;;;;39.53;29.48;;;;;;;;;;4952305;28;20027;-76
2022/08/15 02:54:27;;;;;;;38.75;30.98;;;;;;;;;;4956235;28;20023;-77
2022/08/15 02:56:54;;;;;;;41.50;32.53;;;;;;;;;;4950102;28;20114;-76
2022/08/15 02:59:20;;;;;;;40.83;31.88;;;;;;;;;;4949906;28;20545;-76
2022/08/15 03:01:47;;;;;;;44.10;33.88;;;;;;;;;;4952947;28;20055;-76
2022/08/15 03:04:15;;;;;;;47.05;35.30;;;;;;;;;;5016845;28;20031;-76
2022/08/15 03:06:43;;;;;;;44.55;35.47;;;;;;;;;;4993594;28;20078;-76
2022/08/15 03:09:10;;;;;;;41.63;33.85;;;;;;;;;;4968553;28;20027;-76
2022/08/15 03:11:38;;;;;;;41.13;34.13;;;;;;;;;;4967135;28;20061;-76
2022/08/15 03:14:07;;;;;;;39.88;33.35;;;;;;;;;;4969660;28;20034;-76
2022/08/15 03:16:33;;;;;;;39.88;32.88;;;;;;;;;;4969353;28;20034;-76
2022/08/15 03:18:59;;;;;;;46.33;34.58;;;;;;;;;;4968568;28;20062;-76
2022/08/15 03:21:25;;;;;;;44.17;37.47;;;;;;;;;;4968725;28;20063;-75
2022/08/15 03:23:51;;;;;;;46.60;36.13;;;;;;;;;;4969243;28;20031;-76
2022/08/15 03:26:18;;;;;;;45.10;35.50;;;;;;;;;;4972008;28;20118;-75
2022/08/15 03:28:44;;;;;;;42.70;34.70;;;;;;;;;;4968909;28;20426;-74
2022/08/15 03:31:11;;;;;;;41.85;34.75;;;;;;;;;;4968136;28;20479;-75
2022/08/15 03:33:38;;;;;;;42.13;34.15;;;;;;;;;;4966455;28;20031;-80
2022/08/15 03:36:05;;;;;;;42.45;33.83;;;;;;;;;;4952254;28;20039;-76
2022/08/15 03:38:31;;;;;;;42.63;35.45;;;;;;;;;;4951474;28;20442;-77
2022/08/15 03:44:00;;;;;;;43.60;36.13;;;;;;;;;;4991189;28;20041;-85
2022/08/15 03:46:27;;;;;;;44.05;36.17;;;;;;;;;;5053469;28;20035;-88
2022/08/15 03:48:56;;;;;;;44.97;37.15;;;;;;;;;;4992805;28;20035;-88
2022/08/15 03:51:23;;;;;;;45.20;37.53;;;;;;;;;;4993775;28;20080;-86
2022/08/15 03:53:51;;;;;;;49.70;36.28;;;;;;;;;;4993600;28;20087;-86
2022/08/15 03:56:21;;;;;;;40.97;32.35;;;;;;;;;;4992843;28;20027;-88
2022/08/15 03:58:48;;;;;;;36.80;29.88;;;;;;;;;;4993301;28;20015;-88
2022/08/15 04:01:17;;;;;;;32.60;28.92;;;;;;;;;;4988261;28;20042;-88
2022/08/15 04:03:44;;;;;;;38.92;30.35;;;;;;;;;;4977245;28;20067;-87
2022/08/15 04:06:12;;;;;;;36.70;29.63;;;;;;;;;;4980184;28;20050;-89
2022/08/15 04:08:38;;;;;;;37.55;31.00;;;;;;;;;;4967700;28;20030;-77
2022/08/15 04:11:05;;;;;;;37.38;29.98;;;;;;;;;;4985998;28;20030;-77
2022/08/15 04:13:31;;;;;;;32.45;26.30;;;;;;;;;;4952017;28;20376;-76
2022/08/15 04:15:59;;;;;;;31.85;25.73;;;;;;;;;;4951301;28;20259;-77
2022/08/15 04:18:25;;;;;;;28.23;25.33;;;;;;;;;;4968437;28;20023;-76
2022/08/15 04:20:52;;;;;;;31.02;27.65;;;;;;;;;;4967898;28;20031;-76
2022/08/15 04:23:18;;;;;;;31.20;27.80;;;;;;;;;;4965130;28;20031;-75
2022/08/15 04:25:44;;;;;;;33.47;29.95;;;;;;;;;;4947036;28;20054;-88
2022/08/15 04:28:14;;;;;;;33.17;28.35;;;;;;;;;;4966424;28;20089;-88
2022/08/15 04:30:41;;;;;;;39.67;31.73;;;;;;;;;;4967146;28;20022;-88
2022/08/15 04:33:15;;;;;;;38.60;33.45;;;;;;;;;;4969108;28;20062;-87
2022/08/15 04:35:42;;;;;;;41.20;33.47;;;;;;;;;;4967266;28;20072;-89
2022/08/15 04:38:09;;;;;;;38.78;34.55;;;;;;;;;;4969350;28;20027;-88
2022/08/15 04:40:35;;;;;;;41.85;35.78;;;;;;;;;;4966915;28;20080;-90
2022/08/15 04:43:02;;;;;;;49.95;36.22;;;;;;;;;;4967436;28;20404;-87
2022/08/15 04:45:30;;;;;;;42.55;33.67;;;;;;;;;;4971829;28;20035;-88
2022/08/15 04:47:56;;;;;;;41.03;34.53;;;;;;;;;;4940093;28;20080;-88
2022/08/15 04:50:22;;;;;;;47.78;37.85;;;;;;;;;;4955734;28;20031;-88
2022/08/15 04:52:49;;;;;;;43.95;37.53;;;;;;;;;;4955660;28;20426;-89
2022/08/15 04:55:15;;;;;;;45.78;38.75;;;;;;;;;;4972596;28;20514;-88
2022/08/15 04:57:42;;;;;;;50.65;38.97;;;;;;;;;;4975626;28;20034;-88
2022/08/15 05:00:10;;;;;;;48.60;38.60;;;;;;;;;;4962100;28;20035;-88
2022/08/15 05:02:37;;;;;;;47.45;37.72;;;;;;;;;;4969540;28;20031;-88
2022/08/15 05:05:03;;;;;;;42.53;37.40;;;;;;;;;;4971330;28;20682;-76
2022/08/15 05:07:30;;;;;;;44.25;38.17;;;;;;;;;;4971816;28;20156;-76
2022/08/15 05:09:57;;;;;;;43.97;36.75;;;;;;;;;;4953892;28;20028;-75
2022/08/15 05:12:23;;;;;;;42.90;36.10;;;;;;;;;;4970940;28;20031;-87
2022/08/15 05:14:49;;;;;;;38.88;34.30;;;;;;;;;;4969911;28;20027;-87
2022/08/15 05:17:15;;;;;;;41.72;33.05;;;;;;;;;;4954727;28;20046;-88
2022/08/15 05:19:42;;;;;;;37.67;29.67;;;;;;;;;;4976569;28;20050;-87
2022/08/15 05:22:08;;;;;;;33.95;27.95;;;;;;;;;;4971034;28;20439;-88
2022/08/15 05:24:34;;;;;;;32.95;27.38;;;;;;;;;;4969627;28;20037;-88
2022/08/15 05:27:01;;;;;;;35.58;29.02;;;;;;;;;;4969537;28;20109;-87
2022/08/15 05:29:27;;;;;;;35.75;26.77;;;;;;;;;;4971774;28;20038;-88
2022/08/15 05:31:53;;;;;;;28.65;23.92;;;;;;;;;;4971189;28;20042;-87
2022/08/15 05:34:19;;;;;;;25.85;22.75;;;;;;;;;;4972163;28;20088;-87
2022/08/15 05:36:49;;;;;;;29.77;22.20;;;;;;;;;;4972316;28;20118;-75
2022/08/15 05:39:15;;;;;;;28.60;21.63;;;;;;;;;;4970284;28;20038;-77
2022/08/15 05:42:01;;;;;;;24.73;21.25;;;;;;;;;;4971944;28;20038;-76
2022/08/15 05:44:28;;;;;;;22.73;20.35;;;;;;;;;;4972298;28;20031;-87
2022/08/15 05:47:03;;;;;;;23.83;21.33;;;;;;;;;;4972407;28;20023;-76
2022/08/15 05:49:45;;;;;;;24.27;19.55;;;;;;;;;;5036917;28;20027;-76
2022/08/15 05:52:30;;;;;;;25.77;20.77;;;;;;;;;;4970580;28;20197;-76
2022/08/15 05:55:15;;;;;;;23.60;19.65;;;;;;;;;;4971288;28;20396;-87
2022/08/15 05:57:47;;;;;;;24.55;20.98;;;;;;;;;;4970015;28;20390;-88
2022/08/15 06:00:15;;;;;;;27.60;19.83;;;;;;;;;;4970089;28;20038;-88
2022/08/15 06:02:46;;;;;;;22.75;17.08;;;;;;;;;;4965507;28;20023;-88
2022/08/15 06:05:17;;;;;;;18.65;15.63;;;;;;;;;;4972542;28;20039;-87
2022/08/15 06:07:48;;;;;;;24.08;13.60;;;;;;;;;;4971892;28;20439;-87
2022/08/15 06:10:25;;;;;;;12.48;10.93;;;;;;;;;;4972857;28;20031;-85
2022/08/15 06:12:52;;;;;;;13.07;9.13;;;;;;;;;;4971905;28;20083;-74
2022/08/15 06:15:20;;;;;;;14.00;8.68;;;;;;;;;;4971573;28;20038;-85
2022/08/15 06:17:49;;;;;;;13.70;8.65;;;;;;;;;;4972173;28;20031;-87
2022/08/15 06:20:19;;;;;;;12.13;7.65;;;;;;;;;;4970383;28;20027;-87
2022/08/15 06:22:45;;;;;;;10.80;6.23;;;;;;;;;;4952159;28;20026;-76
2022/08/15 06:25:24;;;;;;;9.27;5.72;;;;;;;;;;4970184;28;20290;-75
2022/08/15 06:28:03;;;;;;;12.93;6.53;;;;;;;;;;4966952;28;20027;-87
2022/08/15 06:30:53;;;;;;;13.07;6.18;;;;;;;;;;4953218;28;20395;-85
2022/08/15 06:33:40;;;;;;;15.93;6.68;;;;;;;;;;4935627;28;20082;-86
2022/08/15 06:36:20;;;;;;;12.15;6.32;;;;;;;;;;4985150;28;20064;-86
2022/08/15 06:38:48;;;;;;;;;;;;;;;;;;4942557;28;20023;-86
2022/08/15 06:41:30;;;;;;;7.78;5.30;;;;;;;;;;4965515;28;19917;-76
2022/08/15 06:43:57;;;;;;;7.65;5.65;;;;;;;;;;4964945;28;20454;-76
2022/08/15 06:46:27;;;;;;;11.90;4.72;;;;;;;;;;4969879;28;20046;-75
2022/08/15 06:48:54;;;;;;;10.32;4.63;;;;;;;;;;4968432;28;20035;-75
2022/08/15 06:51:22;;;;;;;9.98;3.80;;;;;;;;;;5035972;28;20034;-75
2022/08/15 06:53:53;;;;;;;6.00;3.70;;;;;;;;;;4970478;28;20038;-75
2022/08/15 06:56:24;;;;;;;9.00;3.78;;;;;;;;;;4979976;28;20221;-75
2022/08/15 06:58:50;;;;;;;10.88;3.63;;;;;;;;;;4959010;28;20027;-86
2022/08/15 07:01:27;;;;;;;6.10;4.00;;;;;;;;;;4967485;28;20027;-86
2022/08/15 07:03:59;;;;;;;8.32;3.63;;;;;;;;;;4968874;28;20026;-86
2022/08/15 07:06:43;;;;;;;7.22;3.20;;;;;;;;;;4969687;28;20069;-84
2022/08/15 07:09:38;;;;;;;6.57;3.92;;;;;;;;;;4950827;28;20055;-86
2022/08/15 07:12:13;;;;;;;7.97;3.58;;;;;;;;;;4959121;28;20078;-85
2022/08/15 07:14:52;;;;;;;7.25;3.90;;;;;;;;;;4963890;28;20031;-86
2022/08/15 07:17:22;;;;;;;9.63;3.85;;;;;;;;;;4966762;28;20027;-86
2022/08/15 07:19:48;;;;;;;5.87;3.83;;;;;;;;;;4952549;28;20039;-85
2022/08/15 07:22:14;;;;;;;9.68;4.10;;;;;;;;;;4967484;28;20054;-86
2022/08/15 07:24:48;;;;;;;7.68;4.00;;;;;;;;;;4952842;28;20066;-86
2022/08/15 07:27:16;;;;;;;9.35;3.78;;;;;;;;;;4968565;28;20027;-86
2022/08/15 07:29:49;;;;;;;7.18;4.57;;;;;;;;;;4969136;28;20059;-85
2022/08/15 07:32:25;;;;;;;8.05;3.90;;;;;;;;;;4968274;28;20054;-84
2022/08/15 07:34:59;;;;;;;8.70;4.30;;;;;;;;;;4969144;28;20058;-86
2022/08/15 07:37:29;;;;;;;5.97;3.70;;;;;;;;;;4969549;28;20035;-77
2022/08/15 07:40:14;;;;;;;8.88;4.43;;;;;;;;;;4967029;28;20042;-85
2022/08/15 07:42:42;;;;;;;7.43;4.05;;;;;;;;;;4949595;28;20074;-86
2022/08/15 07:45:16;;;;;;;11.13;4.55;;;;;;;;;;4969435;28;20050;-85
2022/08/15 07:47:54;;;;;;;13.88;5.15;;;;;;;;;;4966237;28;20038;-84
2022/08/15 07:50:40;;;;;;;9.73;5.00;;;;;;;;;;4949114;28;20039;-85
2022/08/15 07:53:10;;;;;;;11.38;5.78;;;;;;;;;;4967522;28;20090;-85
2022/08/15 07:55:36;;;;;;;8.68;5.10;;;;;;;;;;4955042;28;20042;-85
2022/08/15 07:58:23;;;;;;;8.50;5.03;;;;;;;;;;4969168;28;20027;-85
2022/08/15 08:00:52;;;;;;;11.40;5.05;;;;;;;;;;4967384;28;20034;-88
2022/08/15 08:03:29;;;;;;;8.85;4.10;;;;;;;;;;4968786;28;20580;-77
2022/08/15 08:05:55;;;;;;;7.50;4.20;;;;;;;;;;4967020;28;20027;-83
2022/08/15 08:08:23;;;;;;;8.20;4.60;;;;;;;;;;4968103;28;20133;-85
2022/08/15 08:11:02;;;;;;;11.00;4.75;;;;;;;;;;4963624;28;20024;-77
2022/08/15 08:13:35;;;;;;;8.10;4.30;;;;;;;;;;4950229;28;20462;-76
2022/08/15 08:16:01;;;;;;;10.55;4.60;;;;;;;;;;4967133;28;20066;-75
2022/08/15 08:18:45;;;;;;;11.38;4.10;;;;;;;;;;4966845;28;20082;-85
2022/08/15 08:21:14;;;;;;;8.20;4.40;;;;;;;;;;4966065;28;20117;-85
2022/08/15 08:23:45;;;;;;;8.32;4.22;;;;;;;;;;4970558;28;20037;-86
2022/08/15 08:26:24;;;;;;;6.15;4.07;;;;;;;;;;4941893;28;20117;-86
2022/08/15 08:28:50;;;;;;;10.02;4.22;;;;;;;;;;4968157;28;20050;-85
2022/08/15 08:31:36;;;;;;;8.02;4.13;;;;;;;;;;4967829;28;20031;-86
2022/08/15 08:34:11;;;;;;;6.57;4.03;;;;;;;;;;4977659;28;20025;-87
2022/08/15 08:36:41;;;;;;;7.38;4.90;;;;;;;;;;4966960;28;20035;-88
2022/08/15 08:39:09;;;;;;;4.93;4.35;;;;;;;;;;4968390;28;20022;-86
2022/08/15 08:41:42;;;;;;;5.22;3.97;;;;;;;;;;4963619;28;20066;-80
2022/08/15 08:44:14;;;;;;;7.82;4.07;;;;;;;;;;4964950;28;20038;-76
2022/08/15 08:46:47;;;;;;;9.07;3.95;;;;;;;;;;4967096;28;20038;-76
2022/08/15 08:49:14;;;;;;;5.20;3.92;;;;;;;;;;4967158;28;20031;-76
2022/08/15 08:51:43;;;;;;;8.65;4.43;;;;;;;;;;4949012;28;20042;-76
2022/08/15 08:54:12;;;;;;;7.38;4.07;;;;;;;;;;4950078;28;20038;-76
2022/08/15 08:56:40;;;;;;;5.13;3.63;;;;;;;;;;4967074;28;20038;-77
2022/08/15 08:59:07;;;;;;;6.28;3.78;;;;;;;;;;4966940;28;20031;-76
2022/08/15 09:01:35;;;;;;;5.93;3.75;;;;;;;;;;4966581;28;20564;-76
2022/08/15 09:04:07;;;;;;;8.90;4.60;;;;;;;;;;4966293;28;20118;-76
2022/08/15 09:06:37;;;;;;;4.97;4.03;;;;;;;;;;4967659;28;20043;-76
2022/08/15 09:09:11;;;;;;;7.38;4.30;;;;;;;;;;5000521;28;20048;-76
2022/08/15 09:11:41;;;;;;;7.63;4.55;;;;;;;;;;4955611;28;20165;-76
2022/08/15 09:14:24;;;;;;;6.55;4.90;;;;;;;;;;4966063;28;20043;-76
2022/08/15 09:16:51;;;;;;;7.88;5.03;;;;;;;;;;4945761;29;20126;-76
2022/08/15 09:19:23;;;;;;;8.63;5.15;;;;;;;;;;4965809;28;20039;-75
2022/08/15 09:21:50;;;;;;;7.10;5.10;;;;;;;;;;4967107;28;20395;-75
2022/08/15 09:24:17;;;;;;;10.57;6.05;;;;;;;;;;4966895;28;20022;-76
2022/08/15 09:27:02;;;;;;;6.55;5.18;;;;;;;;;;4965415;28;20097;-76
2022/08/15 09:29:29;;;;;;;10.18;5.13;;;;;;;;;;4950645;28;20031;-76
2022/08/15 09:31:58;;;;;;;10.48;5.38;;;;;;;;;;4953668;28;20491;-76
2022/08/15 09:34:34;;;;;;;13.82;5.65;;;;;;;;;;4951157;28;20043;-77
2022/08/15 09:37:06;;;;;;;9.45;5.68;;;;;;;;;;5034140;28;20042;-76
2022/08/15 09:39:35;;;;;;;9.88;5.97;;;;;;;;;;4970039;28;20395;-76
2022/08/15 09:42:01;;;;;;;9.90;6.55;;;;;;;;;;4971330;28;20054;-76
2022/08/15 09:44:36;;;;;;;11.57;6.80;;;;;;;;;;4970236;28;20112;-87
2022/08/15 09:47:08;;;;;;;9.27;6.68;;;;;;;;;;4953937;28;20026;-86
2022/08/15 09:49:53;;;;;;;11.13;6.97;;;;;;;;;;4960596;28;20023;-86
2022/08/15 09:52:39;;;;;;;11.90;7.10;;;;;;;;;;4969052;28;20034;-85
2022/08/15 09:55:16;;;;;;;11.85;8.05;;;;;;;;;;4968679;28;20035;-86
2022/08/15 09:57:47;;;;;;;12.10;7.50;;;;;;;;;;4965664;28;20034;-84
2022/08/15 10:00:17;;;;;;;14.63;8.30;;;;;;;;;;4970801;28;20091;-76
2022/08/15 10:02:46;;;;;;;11.27;8.35;;;;;;;;;;4970328;28;20110;-85
2022/08/15 10:05:12;;;;;;;17.35;9.88;;;;;;;;;;4970952;28;20365;-75
2022/08/15 10:07:43;;;;;;;17.70;12.95;;;;;;;;;;4968845;28;20051;-75
2022/08/15 10:10:12;;;;;;;19.77;12.82;;;;;;;;;;4970942;28;20092;-83
2022/08/15 10:12:38;;;;;;;18.25;12.73;;;;;;;;;;4972743;28;20037;-84
2022/08/15 10:15:04;;;;;;;19.23;12.68;;;;;;;;;;4970661;28;20042;-85
2022/08/15 10:17:34;;;;;;;19.77;12.20;;;;;;;;;;4974662;28;20035;-85
2022/08/15 10:20:01;;;;;;;;;;;;;;;;;;4970894;28;20037;-76
2022/08/15 10:22:27;;;;;;;18.35;12.45;;;;;;;;;;4970074;28;20021;-85
2022/08/15 10:25:12;;;;;;;14.05;10.85;;;;;;;;;;4968211;28;20136;-85
2022/08/15 10:27:55;;;;;;;16.38;9.73;;;;;;;;;;4967918;28;20370;-85
2022/08/15 10:30:24;;;;;;;15.60;9.27;;;;;;;;;;5033102;28;20026;-84
2022/08/15 10:32:52;;;;;;;21.35;9.82;;;;;;;;;;4969674;28;20031;-84
2022/08/15 10:35:43;;;;;;;15.77;10.95;;;;;;;;;;4967062;28;20031;-85
2022/08/15 10:38:09;;;;;;;;;;;;;;;;;;4970307;28;20035;-84
2022/08/15 10:40:36;;;;;;;16.02;11.65;;;;;;;;;;4970592;28;19906;-85
2022/08/15 10:43:02;;;;;;;13.57;11.05;;;;;;;;;;4968479;28;20039;-85
2022/08/15 10:46:03;;;;;;;14.60;11.70;;;;;;;;;;4949558;28;20497;-76
2022/08/15 10:48:49;;;;;;;18.15;12.63;;;;;;;;;;4969505;28;20145;-77
2022/08/15 10:51:43;;;;;;;18.67;13.45;;;;;;;;;;4963142;28;20092;-84
2022/08/15 10:54:28;;;;;;;15.77;13.70;;;;;;;;;;4964784;28;20504;-76
2022/08/15 10:56:55;;;;;;;20.40;14.18;;;;;;;;;;4969320;28;20037;-84
2022/08/15 10:59:26;;;;;;;21.75;14.30;;;;;;;;;;4968092;28;20075;-85
2022/08/15 11:02:02;;;;;;;19.00;14.98;;;;;;;;;;4950372;28;20080;-76
2022/08/15 11:04:35;;;;;;;19.38;14.05;;;;;;;;;;4969883;28;20517;-76
2022/08/15 11:07:03;;;;;;;18.08;12.70;;;;;;;;;;4949359;28;20491;-84
2022/08/15 11:09:29;;;;;;;21.27;14.18;;;;;;;;;;4970107;28;20023;-83
2022/08/15 11:11:55;;;;;;;19.58;14.63;;;;;;;;;;4967334;28;20042;-84
2022/08/15 11:14:27;;;;;;;19.95;15.43;;;;;;;;;;4951592;28;20034;-83
2022/08/15 11:16:54;;;;;;;21.90;16.77;;;;;;;;;;4968445;28;20531;-83
2022/08/15 11:19:21;;;;;;;23.20;16.88;;;;;;;;;;4969055;28;20042;-83
2022/08/15 11:21:53;;;;;;;22.95;16.25;;;;;;;;;;4977302;28;20430;-83
2022/08/15 11:24:30;;;;;;;22.52;16.65;;;;;;;;;;4968972;28;20045;-83
2022/08/15 11:27:15;;;;;;;22.92;15.32;;;;;;;;;;4967894;28;20027;-84
2022/08/15 11:29:43;;;;;;;22.52;16.25;;;;;;;;;;4967243;28;20509;-86
2022/08/15 11:32:13;;;;;;;23.38;16.27;;;;;;;;;;4964265;28;20376;-83
2022/08/15 11:34:41;;;;;;;23.50;15.88;;;;;;;;;;4951258;28;20041;-75
2022/08/15 11:37:10;;;;;;;25.10;14.80;;;;;;;;;;4950878;28;20515;-84
2022/08/15 11:39:39;;;;;;;23.20;14.75;;;;;;;;;;5035814;28;20033;-86
2022/08/15 11:42:06;;;;;;;25.50;15.32;;;;;;;;;;5034526;28;20035;-86
2022/08/15 11:44:40;;;;;;;22.75;13.77;;;;;;;;;;4972056;28;20027;-84
2022/08/15 11:47:11;;;;;;;14.15;11.43;;;;;;;;;;4962134;28;20034;-85
2022/08/15 11:49:43;;;;;;;16.10;10.23;;;;;;;;;;4969302;28;20057;-77
2022/08/15 11:52:09;;;;;;;15.07;10.10;;;;;;;;;;4968573;28;20035;-84
2022/08/15 11:54:35;;;;;;;14.30;9.85;;;;;;;;;;4943262;28;20051;-85
2022/08/15 11:57:03;;;;;;;19.25;11.20;;;;;;;;;;4952306;28;20041;-85
2022/08/15 11:59:40;;;;;;;17.20;10.25;;;;;;;;;;4968320;28;20038;-85
2022/08/15 12:02:30;;;;;;;17.58;11.18;;;;;;;;;;5035563;28;20038;-85
2022/08/15 12:04:56;;;;;;;16.60;11.30;;;;;;;;;;5036039;28;20750;-85
2022/08/15 12:07:27;;;;;;;14.95;10.75;;;;;;;;;;5035181;28;20046;-85
2022/08/15 12:09:53;;;;;;;14.57;11.23;;;;;;;;;;4958003;28;20205;-86
2022/08/15 12:12:28;;;;;;;16.35;11.00;;;;;;;;;;4968009;28;20109;-85
2022/08/15 12:15:03;;;;;;;16.55;11.20;;;;;;;;;;4968947;28;20446;-85
2022/08/15 12:17:31;;;;;;;23.30;12.35;;;;;;;;;;4968292;28;20084;-84
2022/08/15 12:19:57;;;;;;;14.13;10.48;;;;;;;;;;4952109;28;20061;-84
2022/08/15 12:22:31;;;;;;;18.73;10.82;;;;;;;;;;4955091;28;20145;-85
2022/08/15 12:24:58;;;;;;;14.77;11.27;;;;;;;;;;4954288;28;20392;-85
2022/08/15 12:27:24;;;;;;;17.48;12.05;;;;;;;;;;4964291;28;20030;-85
2022/08/15 12:29:50;;;;;;;18.70;12.82;;;;;;;;;;4968056;28;20615;-84
2022/08/15 12:32:16;;;;;;;17.85;11.65;;;;;;;;;;4950112;28;20050;-84
2022/08/15 12:34:44;;;;;;;15.57;12.55;;;;;;;;;;4950717;28;20031;-85
2022/08/15 12:37:12;;;;;;;34.90;11.73;;;;;;;;;;4945937;28;20088;-84
2022/08/15 12:39:43;;;;;;;14.65;10.32;;;;;;;;;;4969348;28;20018;-84
2022/08/15 12:42:23;;;;;;;16.30;10.85;;;;;;;;;;4963170;28;20044;-84
2022/08/15 12:44:50;;;;;;;13.88;11.15;;;;;;;;;;4951635;28;20463;-82
2022/08/15 12:47:17;;;;;;;17.25;11.38;;;;;;;;;;4966165;28;20353;-83
2022/08/15 12:49:44;;;;;;;15.77;11.35;;;;;;;;;;4969308;28;20030;-84
2022/08/15 12:52:10;;;;;;;26.15;11.00;;;;;;;;;;4951808;28;20435;-84
2022/08/15 12:54:36;;;;;;;19.63;11.32;;;;;;;;;;4971296;28;21491;-84
2022/08/15 12:57:03;;;;;;;15.65;10.98;;;;;;;;;;4960594;28;20027;-83
2022/08/15 12:59:29;;;;;;;14.77;11.32;;;;;;;;;;4959453;28;20102;-84
2022/08/15 13:01:56;;;;;;;17.40;11.48;;;;;;;;;;4959640;28;20027;-83
2022/08/15 13:04:22;;;;;;;15.88;11.68;;;;;;;;;;4976607;28;20085;-83
2022/08/15 13:06:49;;;;;;;15.07;11.23;;;;;;;;;;4972876;28;20054;-76
2022/08/15 13:09:17;;;;;;;12.35;10.77;;;;;;;;;;5020207;28;20023;-83
2022/08/15 13:11:43;;;;;;;17.58;10.90;;;;;;;;;;4967402;28;20057;-77
2022/08/15 13:14:10;;;;;;;17.27;11.07;;;;;;;;;;4979053;28;20023;-83
2022/08/15 13:16:38;;;;;;;20.55;11.85;;;;;;;;;;4987902;28;20269;-76
2022/08/15 13:19:05;;;;;;;16.98;11.95;;;;;;;;;;5048396;28;20058;-76
2022/08/15 13:24:16;;;;;;;19.58;13.10;;;;;;;;;;4968682;28;20142;-76
2022/08/15 13:26:43;;;;;;;21.35;12.63;;;;;;;;;;4954420;28;20555;-84
2022/08/15 13:29:10;;;;;;;19.75;13.60;;;;;;;;;;4973796;28;20031;-83
2022/08/15 13:31:36;;;;;;;23.05;13.75;;;;;;;;;;4965478;28;20038;-83
2022/08/15 13:34:03;;;;;;;21.65;14.13;;;;;;;;;;4965545;28;20026;-83
2022/08/15 13:36:31;;;;;;;17.70;13.65;;;;;;;;;;4952706;28;20035;-83
2022/08/15 13:38:58;;;;;;;19.20;13.90;;;;;;;;;;4978130;28;20042;-77
2022/08/15 13:41:25;;;;;;;17.80;13.02;;;;;;;;;;4957175;28;20054;-83
2022/08/15 13:43:51;;;;;;;20.33;14.52;;;;;;;;;;4966935;28;20395;-83
2022/08/15 13:46:19;;;;;;;23.02;14.82;;;;;;;;;;4968053;28;20503;-83
2022/08/15 13:48:48;;;;;;;22.60;14.32;;;;;;;;;;4962454;28;20034;-77
2022/08/15 13:51:19;;;;;;;31.55;14.80;;;;;;;;;;4968263;28;20164;-79
2022/08/15 13:53:46;;;;;;;19.15;13.68;;;;;;;;;;5030577;28;20027;-83
2022/08/15 13:56:12;;;;;;;20.00;13.30;;;;;;;;;;4969186;28;20031;-83
2022/08/15 13:58:38;;;;;;;23.15;12.95;;;;;;;;;;4953010;28;20041;-83
2022/08/15 14:01:04;;;;;;;20.02;13.73;;;;;;;;;;4953366;28;20027;-83
2022/08/15 14:03:31;;;;;;;19.13;12.82;;;;;;;;;;4951429;28;20408;-76
2022/08/15 14:06:00;;;;;;;21.50;13.13;;;;;;;;;;5020751;28;20623;-76
2022/08/15 14:08:27;;;;;;;18.95;13.52;;;;;;;;;;4952280;28;20084;-82
2022/08/15 14:10:53;;;;;;;22.50;15.07;;;;;;;;;;4969505;28;20031;-83
2022/08/15 14:13:20;;;;;;;24.83;15.07;;;;;;;;;;4953649;28;20049;-83
2022/08/15 14:15:50;;;;;;;23.15;14.43;;;;;;;;;;4947105;29;20027;-83
2022/08/15 14:18:16;;;;;;;25.77;14.73;;;;;;;;;;4933330;28;20081;-83
2022/08/15 14:20:44;;;;;;;17.63;12.55;;;;;;;;;;4935619;28;20053;-84
2022/08/15 14:23:10;;;;;;;23.88;14.80;;;;;;;;;;4970630;28;20029;-83
2022/08/15 14:25:36;;;;;;;19.33;15.93;;;;;;;;;;4970495;28;20042;-76
2022/08/15 14:28:03;;;;;;;21.10;15.38;;;;;;;;;;4965657;28;20496;-76
2022/08/15 14:30:30;;;;;;;22.30;14.90;;;;;;;;;;4963647;28;20034;-82
2022/08/15 14:32:58;;;;;;;19.85;14.07;;;;;;;;;;4968899;28;20041;-83
2022/08/15 14:35:25;;;;;;;20.70;14.82;;;;;;;;;;4970346;28;20039;-83
2022/08/15 14:37:52;;;;;;;25.08;14.77;;;;;;;;;;4969507;28;20034;-83
2022/08/15 14:40:20;;;;;;;18.02;13.93;;;;;;;;;;4968293;28;20027;-84
2022/08/15 14:42:46;;;;;;;18.75;15.40;;;;;;;;;;4967564;28;20035;-78
2022/08/15 14:45:12;;;;;;;21.77;15.43;;;;;;;;;;4969553;28;20035;-77
2022/08/15 14:47:39;;;;;;;17.48;13.68;;;;;;;;;;4953757;28;20062;-77
2022/08/15 14:50:06;;;;;;;21.42;14.60;;;;;;;;;;4959617;28;20390;-77